Home > Products > Valid Products > TAF

000
FTUS43 KFSD 310500
TAFFSD
TAF
KFSD 310520Z 3106/0106 VRB03KT P6SM FEW060
     FM311600 VRB03KT P6SM SCT060=



000
FTUS43 KFSD 310500
TAFSUX
TAF
KSUX 310520Z 3106/0106 VRB03KT P6SM FEW060
     FM311600 VRB04KT P6SM SCT080=



000
FTUS43 KFSD 310500
TAFSUX
TAF
KSUX 310520Z 3106/0106 VRB03KT P6SM FEW060
     FM311600 VRB04KT P6SM SCT080=



000
FTUS43 KFSD 310500
TAFHON
TAF
KHON 310520Z 3106/0106 VRB03KT P6SM SCT080=



000
FTUS43 KFSD 302300
TAFSUX
TAF
KSUX 302335Z 3100/3124 VRB03KT P6SM FEW060
     FM311600 VRB04KT P6SM SCT080=



000
FTUS43 KFSD 302300
TAFFSD
TAF
KFSD 302335Z 3100/3124 VRB03KT P6SM FEW060
     FM311600 VRB03KT P6SM SCT080=



000
FTUS43 KFSD 302300
TAFSUX
TAF
KSUX 302335Z 3100/3124 VRB03KT P6SM FEW060
     FM311600 VRB04KT P6SM SCT080=



000
FTUS43 KFSD 302300
TAFHON
TAF
KHON 302335Z 3100/3124 VRB03KT P6SM FEW080=



000
FTUS43 KFSD 301700 RRA
TAFHON
TAF
KHON 301748Z 3018/3118 34005KT P6SM FEW050
     FM310200 VRB03KT P6SM SCT080=



000
FTUS43 KFSD 301700 RRA
TAFFSD
TAF
KFSD 301748Z 3018/3118 VRB03KT P6SM SCT040
     FM310900 VRB03KT P6SM SCT080=



000
FTUS43 KFSD 301700 RRA
TAFSUX
TAF
KSUX 301748Z 3018/3118 VRB03KT P6SM BKN060
     FM311200 VRB03KT P6SM SCT080=



000
FTUS43 KFSD 301700 RRA
TAFSUX
TAF
KSUX 301748Z 3018/3118 VRB03KT P6SM BKN060
     FM311200 VRB03KT P6SM SCT080=



000
FTUS43 KFSD 301100
TAFSUX
TAF
KSUX 301123Z 3012/3112 VRB03KT P6SM SKC
     FM301700 35007KT P6SM FEW060
     FM310100 VRB03KT P6SM FEW120=



000
FTUS43 KFSD 301100
TAFFSD
TAF
KFSD 301123Z 3012/3112 VRB03KT P6SM SKC
     FM301700 36006KT P6SM SCT060
     FM310100 VRB03KT P6SM SKC=



000
FTUS43 KFSD 301100
TAFSUX
TAF
KSUX 301123Z 3012/3112 VRB03KT P6SM SKC
     FM301700 35007KT P6SM FEW060
     FM310100 VRB03KT P6SM FEW120=



000
FTUS43 KFSD 301100
TAFHON
TAF
KHON 301123Z 3012/3112 VRB03KT P6SM MIFG SKC
     FM301230 VRB03KT P6SM SKC
     FM301600 02006KT P6SM SCT090
     FM310000 VRB03KT P6SM SKC=



000
FTUS43 KFSD 300500
TAFSUX
TAF
KSUX 300520Z 3006/3106 VRB03KT P6SM SKC
     FM301700 35007KT P6SM SCT060
     FM310100 VRB03KT P6SM FEW120=



000
FTUS43 KFSD 300500
TAFSUX
TAF
KSUX 300520Z 3006/3106 VRB03KT P6SM SKC
     FM301700 35007KT P6SM SCT060
     FM310100 VRB03KT P6SM FEW120=



000
FTUS43 KFSD 300500
TAFFSD
TAF
KFSD 300520Z 3006/3106 VRB03KT P6SM SKC
     FM301700 36006KT P6SM SCT060
     FM310100 VRB03KT P6SM SKC=



000
FTUS43 KFSD 300500
TAFHON
TAF
KHON 300520Z 3006/3106 VRB03KT P6SM SKC
     FM301600 02006KT P6SM SCT100
     FM310000 VRB03KT P6SM SKC=



000
FTUS43 KFSD 292300
TAFSUX
TAF
KSUX 292330Z 3000/3024 34006KT P6SM SCT070
     FM300300 VRB03KT P6SM SKC
     FM301700 36006KT P6SM SCT060=



000
FTUS43 KFSD 292300
TAFHON
TAF
KHON 292330Z 3000/3024 01005KT P6SM SKC
     FM300200 VRB03KT P6SM SKC
     FM301600 04005KT P6SM SCT100=



000
FTUS43 KFSD 292300
TAFFSD
TAF
KFSD 292330Z 3000/3024 33006KT P6SM FEW070
     FM300300 VRB03KT P6SM SKC
     FM301800 01006KT P6SM SCT060=



000
FTUS43 KFSD 292300
TAFSUX
TAF
KSUX 292330Z 3000/3024 34006KT P6SM SCT070
     FM300300 VRB03KT P6SM SKC
     FM301700 36006KT P6SM SCT060=



000
FTUS43 KFSD 291700 RRA
TAFFSD
TAF
KFSD 291745Z 2918/3018 33007KT P6SM BKN060
     FM300200 VRB02KT P6SM SKC
     FM301600 01006KT P6SM FEW040=



000
FTUS43 KFSD 291700 RRA
TAFSUX
TAF
KSUX 291745Z 2918/3018 33007KT P6SM BKN060
     FM300100 VRB02KT P6SM SKC
     FM301600 35005KT P6SM FEW040=



000
FTUS43 KFSD 291700 RRA
TAFHON
TAF
KHON 291745Z 2918/3018 34007KT P6SM SCT060
     FM300200 VRB03KT P6SM SCT080=



000
FTUS43 KFSD 291700 RRA
TAFSUX
TAF
KSUX 291745Z 2918/3018 33007KT P6SM BKN060
     FM300100 VRB02KT P6SM SKC
     FM301600 35005KT P6SM FEW040=



000
FTUS43 KFSD 291100
TAFFSD
TAF
KFSD 291131Z 2912/3012 VRB02KT P6SM MIFG FEW060
     FM291300 VRB03KT P6SM FEW060
     FM291500 34008KT P6SM SCT040
     FM300200 VRB03KT P6SM SKC=



000
FTUS43 KFSD 291100
TAFSUX
TAF
KSUX 291131Z 2912/3012 VRB03KT P6SM FEW060
     FM291600 33007KT P6SM SCT040
     FM300100 VRB03KT P6SM SKC=



000
FTUS43 KFSD 291100
TAFSUX
TAF
KSUX 291131Z 2912/3012 VRB03KT P6SM FEW060
     FM291600 33007KT P6SM SCT040
     FM300100 VRB03KT P6SM SKC=



000
FTUS43 KFSD 291100
TAFHON
TAF
KHON 291131Z 2912/3012 VRB02KT P6SM MIFG FEW060
     FM291300 VRB03KT P6SM FEW060
     FM291900 35008KT P6SM SCT060
     FM300130 VRB03KT P6SM SKC=



000
FTUS43 KFSD 290500
TAFSUX
TAF
KSUX 290522Z 2906/3006 VRB03KT P6SM FEW040
     FM291600 33006KT P6SM SCT040
     FM300100 VRB03KT P6SM SKC=



000
FTUS43 KFSD 290500
TAFFSD
TAF
KFSD 290522Z 2906/3006 VRB03KT P6SM FEW040
     FM291600 34008KT P6SM SCT040
     FM300200 VRB03KT P6SM SKC=



000
FTUS43 KFSD 290500
TAFSUX
TAF
KSUX 290522Z 2906/3006 VRB03KT P6SM FEW040
     FM291600 33006KT P6SM SCT040
     FM300100 VRB03KT P6SM SKC=



000
FTUS43 KFSD 290500
TAFHON
TAF
KHON 290522Z 2906/3006 VRB03KT P6SM FEW250
     FM291900 35007KT P6SM SCT060
     FM300130 VRB03KT P6SM SKC=



000
FTUS43 KFSD 282300
TAFHON
TAF
KHON 282321Z 2900/2924 36006KT P6SM SCT060
     FM290130 VRB03KT P6SM FEW050
     FM291900 35008KT P6SM SCT090=



000
FTUS43 KFSD 282300
TAFSUX
TAF
KSUX 282321Z 2900/2924 35007KT P6SM SCT045
     FM290200 VRB03KT P6SM FEW040
     FM291600 33006KT P6SM SCT045=



000
FTUS43 KFSD 282300
TAFFSD
TAF
KFSD 282321Z 2900/2924 01007KT P6SM SCT045
     FM290200 VRB03KT P6SM FEW040
     FM291800 34006KT P6SM SCT045=



000
FTUS43 KFSD 281700
TAFFSD
TAF
KFSD 281720Z 2818/2918 35014KT P6SM BKN050
     FM290100 36006KT P6SM BKN050
     FM290300 VRB03KT P6SM FEW050=



000
FTUS43 KFSD 281700
TAFHON
TAF
KHON 281720Z 2818/2918 35010KT P6SM BKN050
     FM290100 VRB03KT P6SM FEW050=



000
FTUS43 KFSD 281700
TAFSUX
TAF
KSUX 281720Z 2818/2918 35008KT P6SM BKN050
     FM290100 VRB03KT P6SM SCT050=



000
FTUS43 KFSD 281700
TAFSUX
TAF
KSUX 281720Z 2818/2918 35008KT P6SM BKN050
     FM290100 VRB03KT P6SM SCT050=



000
FTUS43 KFSD 281400 AAB
TAFFSD
TAF AMD
KFSD 281447Z 2815/2912 35010KT P6SM BKN018
     FM281600 35010KT P6SM BKN025
     FM281800 35013KT P6SM BKN040
     FM290100 VRB03KT P6SM BKN060
     FM290300 VRB03KT P6SM FEW045=



000
FTUS43 KFSD 281400 AAA
TAFFSD
TAF AMD
KFSD 281446Z 2815/2912 35010KT P6SM BKN020
     FM281600 35010KT P6SM BKN025
     FM281800 35013KT P6SM BKN040
     FM290100 VRB03KT P6SM BKN060
     FM290300 VRB03KT P6SM FEW045=



000
FTUS43 KFSD 281100
TAFSUX
TAF
KSUX 281137Z 2812/2912 33007KT P6SM BKN035
     FM281800 35010KT P6SM BKN045
     FM290100 VRB03KT P6SM SCT050=



000
FTUS43 KFSD 281100
TAFSUX
TAF
KSUX 281137Z 2812/2912 33007KT P6SM BKN035
     FM281800 35010KT P6SM BKN045
     FM290100 VRB03KT P6SM SCT050=



000
FTUS43 KFSD 281100
TAFHON
TAF
KHON 281137Z 2812/2912 32004KT P6SM FEW040
     FM281500 35011KT P6SM SCT035
     FM281800 36010KT P6SM SCT060
     FM290100 VRB03KT P6SM SKC=



000
FTUS43 KFSD 281100
TAFFSD
TAF
KFSD 281137Z 2812/2912 33007KT P6SM BKN035
     FM281400 35013KT P6SM BKN040
     FM290100 VRB03KT P6SM BKN060
     FM290300 VRB03KT P6SM FEW045=



    US Dept of Commerce
    National Oceanic and Atmospheric Administration
    National Weather Service
    1325 East West Highway
    Silver Spring, MD 20910
    Page Author: NWS Internet Services Team
Disclaimer
Information Quality
Credits
Glossary
Privacy Policy
Freedom of Information Act (FOIA)
About Us
Career Opportunities